createdAt,value
2019-03-17T00:01:22.221Z,11.80
2019-03-17T00:03:52.014Z,11.80
2019-03-17T00:06:21.799Z,12.00
2019-03-17T00:08:52.158Z,11.90
2019-03-17T00:11:21.952Z,12.00
2019-03-17T00:13:51.763Z,11.90
2019-03-17T00:16:21.634Z,11.80
2019-03-17T00:18:51.644Z,11.80
2019-03-17T00:21:22.001Z,11.70
2019-03-17T00:23:51.662Z,12.00
2019-03-17T00:26:21.422Z,12.00
2019-03-17T00:28:51.077Z,12.00
2019-03-17T00:31:24.067Z,11.80
2019-03-17T00:33:52.492Z,11.70
2019-03-17T00:36:22.278Z,11.70
2019-03-17T00:38:52.543Z,11.80
2019-03-17T00:41:22.604Z,11.70
2019-03-17T00:43:54.398Z,11.80
2019-03-17T00:46:24.422Z,11.70
2019-03-17T00:48:54.582Z,11.60
2019-03-17T00:51:24.457Z,11.70
2019-03-17T00:53:54.282Z,11.80
2019-03-17T00:56:24.083Z,11.70
2019-03-17T00:58:53.930Z,11.80
2019-03-17T01:01:23.686Z,11.90
2019-03-17T01:03:53.547Z,12.20
2019-03-17T01:06:23.134Z,12.00
2019-03-17T01:08:52.967Z,11.70
2019-03-17T01:11:22.722Z,11.50
2019-03-17T01:13:52.574Z,11.60
2019-03-17T01:16:22.175Z,11.60
2019-03-17T01:18:52.016Z,11.50
2019-03-17T01:21:21.783Z,11.60
2019-03-17T01:23:52.186Z,11.10
2019-03-17T01:26:21.804Z,11.30
2019-03-17T01:28:51.824Z,11.50
2019-03-17T01:31:22.155Z,11.60
2019-03-17T01:33:51.978Z,11.40
2019-03-17T01:36:22.044Z,11.30
2019-03-17T01:38:51.916Z,11.70
2019-03-17T01:41:21.787Z,11.80
2019-03-17T01:43:51.806Z,11.80
2019-03-17T01:46:21.539Z,11.50
2019-03-17T01:48:51.379Z,11.20
2019-03-17T01:51:21.266Z,11.50
2019-03-17T01:53:51.103Z,11.50
2019-03-17T01:56:20.883Z,11.60
2019-03-17T01:58:51.107Z,11.60
2019-03-17T02:01:21.221Z,11.50
2019-03-17T02:03:51.893Z,11.60
2019-03-17T02:06:22.806Z,11.20
2019-03-17T02:08:52.451Z,11.20
2019-03-17T02:11:22.626Z,11.20
2019-03-17T02:13:52.930Z,11.30
2019-03-17T02:16:22.867Z,11.50
2019-03-17T02:18:52.761Z,11.30
2019-03-17T02:21:22.761Z,11.40
2019-03-17T02:23:52.645Z,11.40
2019-03-17T02:26:22.398Z,11.40
2019-03-17T02:28:52.212Z,11.60
2019-03-17T02:31:22.258Z,11.80
2019-03-17T02:33:52.053Z,11.80
2019-03-17T02:36:21.917Z,11.50
2019-03-17T02:38:51.687Z,11.30
2019-03-17T02:41:23.357Z,11.40
2019-03-17T02:43:53.709Z,11.10
2019-03-17T02:46:23.465Z,11.40
2019-03-17T02:48:53.519Z,11.20
2019-03-17T02:51:23.323Z,11.30
2019-03-17T02:53:53.110Z,11.10
2019-03-17T02:56:22.748Z,11.60
2019-03-17T02:58:53.136Z,11.20
2019-03-17T03:01:23.076Z,11.20
2019-03-17T03:03:53.062Z,11.20
2019-03-17T03:06:22.791Z,11.20
2019-03-17T03:08:52.705Z,11.40
2019-03-17T03:11:22.616Z,11.10
2019-03-17T03:13:52.310Z,11.00
2019-03-17T03:16:23.327Z,11.10
2019-03-17T03:18:53.425Z,11.10
2019-03-17T03:21:23.119Z,11.20
2019-03-17T03:23:52.935Z,11.40
2019-03-17T03:26:22.548Z,11.30
2019-03-17T03:28:52.527Z,10.90
2019-03-17T03:31:22.761Z,11.00
2019-03-17T03:33:53.053Z,11.00
2019-03-17T03:36:23.020Z,10.90
2019-03-17T03:38:52.893Z,10.80
2019-03-17T03:41:22.751Z,10.60
2019-03-17T03:43:52.599Z,10.50
2019-03-17T03:46:22.977Z,10.60
2019-03-17T03:48:52.649Z,11.10
2019-03-17T03:51:22.502Z,11.20
2019-03-17T03:53:52.430Z,10.80
2019-03-17T03:56:22.071Z,10.60
2019-03-17T03:58:53.611Z,10.80
2019-03-17T04:01:23.418Z,10.90
2019-03-17T04:03:53.053Z,10.70
2019-03-17T04:06:26.883Z,10.50
2019-03-17T04:08:54.285Z,10.30
2019-03-17T04:11:24.666Z,10.20
2019-03-17T04:13:54.263Z,10.30
2019-03-17T04:16:24.072Z,10.20
2019-03-17T04:18:53.998Z,10.30
2019-03-17T04:21:23.813Z,10.50
2019-03-17T04:23:53.723Z,10.50
2019-03-17T04:26:23.613Z,10.30
2019-03-17T04:28:53.463Z,10.60
2019-03-17T04:31:23.530Z,11.30
2019-03-17T04:33:53.380Z,11.00
2019-03-17T04:36:23.283Z,10.60
2019-03-17T04:38:54.821Z,10.40
2019-03-17T04:41:24.782Z,10.30
2019-03-17T04:43:54.755Z,10.20
2019-03-17T04:46:24.457Z,10.40
2019-03-17T04:48:55.559Z,10.00
2019-03-17T04:51:25.222Z,10.00
2019-03-17T04:53:55.066Z,10.10
2019-03-17T04:56:25.064Z,10.20
2019-03-17T04:58:54.887Z,10.40
2019-03-17T05:01:24.490Z,10.40
2019-03-17T05:03:54.986Z,10.10
2019-03-17T05:06:24.985Z,10.00
2019-03-17T05:08:57.751Z,10.30
2019-03-17T05:11:28.226Z,10.70
2019-03-17T05:13:58.197Z,10.30
2019-03-17T05:16:27.962Z,9.90
2019-03-17T05:18:58.201Z,9.90
2019-03-17T05:21:29.188Z,9.80
2019-03-17T05:23:59.157Z,10.00
2019-03-17T05:26:30.708Z,9.70
2019-03-17T05:29:00.315Z,9.90
2019-03-17T05:31:32.150Z,9.70
2019-03-17T05:34:01.801Z,9.70
2019-03-17T05:36:31.804Z,10.00
2019-03-17T05:39:01.718Z,9.80
2019-03-17T05:41:31.602Z,10.00
2019-03-17T05:44:01.421Z,10.10
2019-03-17T05:46:32.224Z,10.40
2019-03-17T05:49:03.795Z,10.10
2019-03-17T05:51:34.678Z,9.80
2019-03-17T05:54:04.595Z,10.30
2019-03-17T05:56:35.084Z,10.40
2019-03-17T05:59:06.608Z,9.90
2019-03-17T06:01:36.198Z,9.80
2019-03-17T06:04:07.174Z,9.90
2019-03-17T06:06:36.966Z,9.50
2019-03-17T06:09:08.077Z,9.40
2019-03-17T06:11:39.942Z,9.50
2019-03-17T06:14:09.898Z,9.80
2019-03-17T06:16:39.717Z,9.50
2019-03-17T06:19:09.686Z,9.80
2019-03-17T06:21:39.278Z,9.30
2019-03-17T06:24:09.173Z,9.50
2019-03-17T06:26:38.781Z,10.00
2019-03-17T06:29:08.767Z,10.40
2019-03-17T06:31:38.366Z,10.60
2019-03-17T06:34:08.218Z,10.40
2019-03-17T06:36:39.839Z,10.30
2019-03-17T06:39:10.186Z,9.20
2019-03-17T06:41:39.961Z,9.50
2019-03-17T06:44:09.707Z,10.10
2019-03-17T06:46:39.285Z,9.60
2019-03-17T06:49:10.070Z,9.00
2019-03-17T06:51:39.833Z,9.00
2019-03-17T06:54:09.682Z,9.60
2019-03-17T06:56:39.431Z,8.90
2019-03-17T06:59:09.472Z,9.00
2019-03-17T07:01:39.388Z,9.10
2019-03-17T07:04:09.086Z,9.70
2019-03-17T07:06:38.914Z,9.30
2019-03-17T07:09:08.863Z,9.00
2019-03-17T07:11:38.735Z,8.90
2019-03-17T07:14:08.402Z,9.10
2019-03-17T07:16:38.295Z,9.00
2019-03-17T07:19:08.235Z,8.90
2019-03-17T07:21:38.408Z,8.80
2019-03-17T07:24:08.334Z,8.70
2019-03-17T07:26:38.767Z,9.20
2019-03-17T07:29:08.691Z,9.30
2019-03-17T07:31:38.823Z,9.90
2019-03-17T07:34:08.451Z,10.20
2019-03-17T07:36:38.487Z,8.80
2019-03-17T07:39:12.150Z,8.20
2019-03-17T07:41:40.774Z,7.70
2019-03-17T07:44:11.716Z,8.20
2019-03-17T07:46:41.512Z,9.20
2019-03-17T07:49:11.373Z,9.50
2019-03-17T07:51:40.992Z,9.20
2019-03-17T07:54:10.771Z,9.50
2019-03-17T07:56:40.372Z,9.20
2019-03-17T07:59:10.214Z,9.30
2019-03-17T08:01:39.958Z,9.30
2019-03-17T08:04:09.839Z,9.70
2019-03-17T08:06:40.609Z,9.70
2019-03-17T08:09:10.478Z,11.10
2019-03-17T08:11:40.276Z,10.30
2019-03-17T08:14:10.299Z,10.50
2019-03-17T08:16:40.242Z,10.80
2019-03-17T08:19:10.022Z,12.00
2019-03-17T08:21:39.932Z,12.10
2019-03-17T08:24:10.476Z,13.00
2019-03-17T08:26:40.355Z,11.30
2019-03-17T08:29:10.690Z,11.60
2019-03-17T08:31:40.589Z,12.10
2019-03-17T08:34:10.486Z,11.60
2019-03-17T08:36:40.767Z,11.70
2019-03-17T08:39:10.563Z,11.80
2019-03-17T08:41:41.265Z,11.90
2019-03-17T08:44:11.341Z,10.80
2019-03-17T08:46:41.302Z,10.30
2019-03-17T08:49:12.361Z,10.40
2019-03-17T08:51:42.178Z,10.90
2019-03-17T08:54:12.614Z,11.10
2019-03-17T08:56:42.439Z,10.60
2019-03-17T08:59:13.403Z,11.50
2019-03-17T09:01:43.238Z,10.40
2019-03-17T09:04:13.186Z,11.40
2019-03-17T09:06:43.203Z,10.70
2019-03-17T09:09:12.933Z,9.80
2019-03-17T09:11:42.696Z,10.10
2019-03-17T09:14:12.538Z,10.90
2019-03-17T09:16:42.702Z,10.80
2019-03-17T09:19:12.492Z,10.20
2019-03-17T09:21:42.283Z,10.30
2019-03-17T09:24:17.352Z,10.40
2019-03-17T09:26:45.254Z,10.90
2019-03-17T09:29:15.130Z,10.80
2019-03-17T09:31:45.051Z,10.40
2019-03-17T09:34:16.810Z,10.40
2019-03-17T09:36:47.826Z,11.20
2019-03-17T09:39:17.953Z,10.40
2019-03-17T09:41:48.044Z,10.50
2019-03-17T09:44:19.964Z,10.30
2019-03-17T09:46:50.013Z,9.80
2019-03-17T09:49:19.664Z,9.90
2019-03-17T09:51:49.433Z,9.80
2019-03-17T09:54:19.433Z,9.90
2019-03-17T09:56:49.264Z,9.90
2019-03-17T09:59:19.170Z,9.80
2019-03-17T10:01:49.122Z,9.80
2019-03-17T10:04:18.735Z,9.70
2019-03-17T10:06:48.636Z,9.90
2019-03-17T10:09:18.898Z,10.10
2019-03-17T10:11:50.013Z,9.90
2019-03-17T10:14:20.080Z,9.50
2019-03-17T10:16:52.415Z,9.70
2019-03-17T10:19:22.370Z,9.00
2019-03-17T10:21:52.215Z,8.40
2019-03-17T10:24:23.691Z,8.10
2019-03-17T10:26:53.341Z,7.90
2019-03-17T10:29:23.677Z,8.00
2019-03-17T10:31:53.326Z,7.50
2019-03-17T10:34:23.083Z,8.70
2019-03-17T10:36:52.707Z,9.30
2019-03-17T10:39:23.118Z,9.20
2019-03-17T10:41:52.959Z,9.10
2019-03-17T10:44:23.238Z,10.10
2019-03-17T10:46:53.104Z,10.10
2019-03-17T10:49:23.010Z,9.20
2019-03-17T10:51:53.040Z,9.80
2019-03-17T10:54:22.890Z,9.90
2019-03-17T10:56:53.414Z,10.80
2019-03-17T10:59:23.218Z,11.10
2019-03-17T11:01:53.074Z,11.10
2019-03-17T11:04:24.570Z,11.30
2019-03-17T11:06:54.494Z,10.90
2019-03-17T11:09:25.434Z,11.80
2019-03-17T11:11:55.693Z,12.00
2019-03-17T11:14:25.441Z,11.60
2019-03-17T11:16:55.245Z,11.90
2019-03-17T11:19:25.847Z,11.20
2019-03-17T11:24:24.700Z,9.90
2019-03-17T11:26:55.758Z,8.20
2019-03-17T11:29:25.723Z,8.50
2019-03-17T11:31:55.519Z,10.40
2019-03-17T11:34:26.011Z,10.60
2019-03-17T11:36:55.909Z,10.30
2019-03-17T11:39:37.218Z,10.30
2019-03-17T11:41:57.143Z,10.50
2019-03-17T11:44:28.096Z,11.00
2019-03-17T11:46:57.840Z,10.70
2019-03-17T11:49:27.750Z,10.40
2019-03-17T11:51:57.678Z,10.30
2019-03-17T11:54:27.615Z,10.60
2019-03-17T11:56:58.025Z,10.70
2019-03-17T11:59:27.859Z,11.00
2019-03-17T12:01:57.815Z,11.00
2019-03-17T12:04:27.568Z,11.00
2019-03-17T12:06:57.394Z,10.70
2019-03-17T12:09:29.234Z,10.80
2019-03-17T12:11:58.779Z,10.50
2019-03-17T12:14:28.746Z,10.60
2019-03-17T12:16:58.602Z,10.40
2019-03-17T12:19:32.714Z,10.60
2019-03-17T12:22:09.084Z,10.70
2019-03-17T12:24:32.912Z,11.40
2019-03-17T12:27:02.775Z,11.60
2019-03-17T12:29:32.374Z,11.40
2019-03-17T12:32:02.205Z,11.00
2019-03-17T12:34:32.576Z,10.70
2019-03-17T12:37:02.437Z,10.70
2019-03-17T12:39:32.043Z,10.30
2019-03-17T12:42:05.135Z,10.00
2019-03-17T12:44:35.804Z,10.00
2019-03-17T12:47:05.881Z,9.80
2019-03-17T12:49:36.209Z,10.10
2019-03-17T12:52:06.092Z,10.50
2019-03-17T12:54:35.707Z,10.80
2019-03-17T12:57:05.537Z,10.60
2019-03-17T12:59:35.192Z,11.10
2019-03-17T13:02:05.236Z,11.30
2019-03-17T13:04:35.692Z,11.10
2019-03-17T13:07:05.347Z,11.70
2019-03-17T13:09:35.171Z,11.50
2019-03-17T13:12:04.976Z,11.80
2019-03-17T13:14:35.403Z,11.10
2019-03-17T13:17:06.121Z,10.70
2019-03-17T13:19:36.067Z,10.80
2019-03-17T13:22:05.728Z,10.10
2019-03-17T13:24:35.689Z,10.20
2019-03-17T13:27:05.491Z,9.10
2019-03-17T13:29:36.979Z,9.00
2019-03-17T13:32:07.506Z,8.70
2019-03-17T13:34:37.282Z,9.60
2019-03-17T13:37:06.906Z,10.00
2019-03-17T13:39:36.816Z,12.00
2019-03-17T13:42:06.657Z,12.30
2019-03-17T13:44:36.603Z,11.70
2019-03-17T13:52:04.943Z,11.30
2019-03-17T13:54:34.832Z,12.50
2019-03-17T13:57:06.594Z,11.80
2019-03-17T13:59:36.185Z,11.90
2019-03-17T14:02:06.169Z,12.70
2019-03-17T14:09:35.522Z,13.50
2019-03-17T14:12:05.578Z,9.90
2019-03-17T14:14:36.473Z,9.00
2019-03-17T14:17:06.195Z,9.70
2019-03-17T14:19:36.012Z,11.00
2019-03-17T14:22:05.862Z,10.60
2019-03-17T14:24:36.646Z,10.30
2019-03-17T14:27:06.827Z,9.50
2019-03-17T14:29:37.672Z,10.40
2019-03-17T14:32:07.825Z,11.50
2019-03-17T14:34:37.837Z,11.40
2019-03-17T14:37:07.866Z,10.30
2019-03-17T14:39:37.846Z,10.20
2019-03-17T14:44:37.174Z,9.70
2019-03-17T14:47:07.054Z,9.80
2019-03-17T14:49:36.806Z,9.60
2019-03-17T14:52:06.739Z,9.50
2019-03-17T14:54:37.361Z,10.30
2019-03-17T14:57:08.797Z,10.00
2019-03-17T14:59:38.634Z,10.40
2019-03-17T15:02:08.843Z,10.20
2019-03-17T15:04:41.053Z,10.20
2019-03-17T15:07:10.160Z,10.70
2019-03-17T15:09:40.028Z,10.50
2019-03-17T15:12:09.896Z,10.20
2019-03-17T15:14:40.228Z,9.70
2019-03-17T15:17:10.298Z,9.50
2019-03-17T15:19:39.950Z,10.40
2019-03-17T15:22:09.579Z,10.80
2019-03-17T15:24:39.170Z,9.70
2019-03-17T15:27:08.963Z,9.30
2019-03-17T15:29:38.542Z,9.20
2019-03-17T15:32:08.512Z,10.20
2019-03-17T15:34:38.117Z,10.10
2019-03-17T15:37:07.878Z,10.00
2019-03-17T15:39:37.682Z,10.70
2019-03-17T15:42:07.690Z,10.60
2019-03-17T15:44:37.602Z,10.40
2019-03-17T15:47:07.434Z,11.20
2019-03-17T15:49:37.107Z,10.80
2019-03-17T15:52:06.983Z,10.70
2019-03-17T15:54:36.728Z,10.20
2019-03-17T15:57:07.078Z,10.40
2019-03-17T15:59:37.074Z,10.20
2019-03-17T16:02:07.155Z,10.40
2019-03-17T16:04:37.856Z,10.20
2019-03-17T16:07:07.542Z,9.90
2019-03-17T16:09:39.198Z,10.80
2019-03-17T16:12:09.183Z,9.80
2019-03-17T16:14:38.960Z,8.80
2019-03-17T16:17:08.584Z,8.50
2019-03-17T16:19:38.869Z,8.60
2019-03-17T16:22:08.935Z,10.10
2019-03-17T16:24:38.733Z,10.70
2019-03-17T16:27:08.502Z,12.00
2019-03-17T16:32:09.937Z,12.50
2019-03-17T16:34:39.922Z,12.50
2019-03-17T16:37:11.398Z,10.20
2019-03-17T16:39:42.311Z,11.20
2019-03-17T16:42:12.796Z,10.10
2019-03-17T16:44:42.814Z,9.60
2019-03-17T16:47:12.606Z,11.00
2019-03-17T16:49:42.242Z,10.50
2019-03-17T16:52:12.541Z,11.20
2019-03-17T16:54:43.511Z,11.70
2019-03-17T16:57:13.287Z,11.70
2019-03-17T16:59:44.958Z,11.10
2019-03-17T17:02:15.776Z,10.90
2019-03-17T17:04:47.449Z,11.70
2019-03-17T17:07:17.431Z,11.00
2019-03-17T17:09:47.195Z,11.10
2019-03-17T17:12:17.558Z,11.60
2019-03-17T17:14:48.615Z,9.80
2019-03-17T17:17:18.218Z,9.80
2019-03-17T17:19:48.102Z,10.00
2019-03-17T17:22:17.702Z,10.40
2019-03-17T17:24:47.494Z,10.40
2019-03-17T17:27:20.406Z,9.90
2019-03-17T17:29:49.189Z,10.00
2019-03-17T17:32:18.960Z,9.40
2019-03-17T17:34:48.890Z,9.20
2019-03-17T17:37:18.794Z,8.50
2019-03-17T17:39:48.535Z,8.70
2019-03-17T17:42:18.279Z,8.90
2019-03-17T17:44:48.284Z,9.00
2019-03-17T17:47:18.035Z,8.70
2019-03-17T17:49:49.685Z,8.80
2019-03-17T17:52:19.503Z,9.00
2019-03-17T17:54:49.603Z,9.70
2019-03-17T17:57:19.437Z,9.50
2019-03-17T18:02:18.243Z,8.30
2019-03-17T18:04:47.879Z,8.80
2019-03-17T18:07:18.028Z,8.60
2019-03-17T18:09:49.894Z,9.10
2019-03-17T18:12:21.355Z,9.20
2019-03-17T18:14:51.225Z,9.60
2019-03-17T18:17:21.006Z,9.50
2019-03-17T18:19:51.855Z,9.20
2019-03-17T18:22:21.637Z,8.60
2019-03-17T18:24:51.507Z,9.10
2019-03-17T18:27:21.271Z,9.90
2019-03-17T18:29:51.278Z,9.80
2019-03-17T18:32:20.956Z,10.70
2019-03-17T18:34:52.442Z,9.90
2019-03-17T18:37:22.052Z,9.70
2019-03-17T18:39:53.703Z,10.20
2019-03-17T18:42:32.411Z,10.00
2019-03-17T18:44:55.287Z,9.70
2019-03-17T18:47:25.252Z,8.90
2019-03-17T18:49:55.248Z,8.50
2019-03-17T18:54:54.243Z,8.30
2019-03-17T18:57:24.027Z,6.80
2019-03-17T18:59:54.145Z,7.30
2019-03-17T19:02:24.110Z,7.10
2019-03-17T19:04:54.394Z,7.30
2019-03-17T19:07:27.594Z,7.00
2019-03-17T19:09:57.178Z,7.00
2019-03-17T19:12:27.070Z,7.80
2019-03-17T19:14:56.688Z,8.20
2019-03-17T19:17:28.227Z,7.50
2019-03-17T19:19:58.121Z,7.30
2019-03-17T19:22:27.982Z,7.10
2019-03-17T19:24:57.947Z,6.70
2019-03-17T19:27:27.850Z,6.40
2019-03-17T19:29:57.790Z,7.10
2019-03-17T19:32:27.934Z,7.80
2019-03-17T19:34:58.104Z,8.40
2019-03-17T19:37:27.959Z,8.40
2019-03-17T19:39:57.832Z,7.60
2019-03-17T19:42:27.758Z,8.40
2019-03-17T19:44:57.554Z,7.80
2019-03-17T19:47:27.658Z,7.80
2019-03-17T19:49:57.501Z,7.50
2019-03-17T19:52:27.110Z,7.70
2019-03-17T19:54:58.814Z,8.40
2019-03-17T19:57:28.698Z,8.90
2019-03-17T19:59:58.790Z,6.90
2019-03-17T20:02:28.650Z,7.10
2019-03-17T20:04:58.483Z,8.70
2019-03-17T20:07:28.386Z,7.90
2019-03-17T20:09:59.127Z,6.90
2019-03-17T20:12:29.955Z,8.70
2019-03-17T20:15:00.355Z,7.20
2019-03-17T20:17:30.275Z,7.90
2019-03-17T20:20:00.423Z,7.00
2019-03-17T20:22:30.383Z,7.30
2019-03-17T20:25:00.349Z,7.50
2019-03-17T20:27:31.119Z,7.90
2019-03-17T20:30:00.695Z,8.40
2019-03-17T20:32:30.610Z,8.90
2019-03-17T20:35:00.930Z,9.10
2019-03-17T20:37:30.750Z,8.90
2019-03-17T20:40:00.667Z,8.90
2019-03-17T20:42:30.928Z,9.40
2019-03-17T20:45:00.778Z,9.50
2019-03-17T20:47:30.713Z,10.10
2019-03-17T20:50:00.470Z,9.70
2019-03-17T20:52:30.534Z,10.40
2019-03-17T20:55:00.342Z,9.20
2019-03-17T20:57:30.183Z,8.80
2019-03-17T21:00:00.296Z,9.00
2019-03-17T21:02:29.982Z,9.20
2019-03-17T21:05:00.379Z,9.60
2019-03-17T21:07:30.146Z,8.70
2019-03-17T21:09:59.901Z,10.10
2019-03-17T21:12:29.738Z,9.00
2019-03-17T21:15:00.571Z,8.90
2019-03-17T21:17:30.190Z,8.60
2019-03-17T21:20:00.364Z,8.90
2019-03-17T21:22:31.867Z,8.90
2019-03-17T21:25:01.764Z,8.80
2019-03-17T21:27:33.315Z,8.30
2019-03-17T21:30:05.200Z,9.10
2019-03-17T21:32:35.034Z,9.80
2019-03-17T21:35:05.108Z,8.30
2019-03-17T21:37:34.963Z,8.70
2019-03-17T21:40:06.038Z,8.60
2019-03-17T21:42:35.906Z,7.40
2019-03-17T21:45:05.807Z,8.30
2019-03-17T21:47:35.842Z,7.50
2019-03-17T21:50:06.915Z,7.20
2019-03-17T21:52:36.862Z,7.50
2019-03-17T21:55:07.816Z,6.50
2019-03-17T21:57:37.683Z,6.60
2019-03-17T22:00:08.415Z,7.80
2019-03-17T22:02:38.707Z,8.00
2019-03-17T22:05:08.859Z,7.20
2019-03-17T22:07:48.945Z,8.30
2019-03-17T22:10:11.460Z,8.70
2019-03-17T22:12:42.518Z,8.10
2019-03-17T22:15:12.441Z,9.40
2019-03-17T22:17:42.248Z,8.50
2019-03-17T22:20:12.238Z,7.20
2019-03-17T22:22:44.384Z,7.60
2019-03-17T22:25:14.327Z,8.30
2019-03-17T22:27:44.158Z,8.20
2019-03-17T22:30:14.183Z,8.50
2019-03-17T22:32:44.320Z,7.50
2019-03-17T22:35:15.899Z,8.10
2019-03-17T22:37:45.934Z,8.20
2019-03-17T22:40:15.931Z,9.20
2019-03-17T22:42:45.921Z,8.30
2019-03-17T22:45:15.852Z,8.70
2019-03-17T22:47:45.815Z,9.20
2019-03-17T22:50:15.927Z,8.20
2019-03-17T22:52:47.502Z,9.20
2019-03-17T22:55:17.125Z,8.70
2019-03-17T22:57:46.951Z,8.40
2019-03-17T23:00:21.799Z,9.40
2019-03-17T23:02:51.686Z,9.80
2019-03-17T23:05:21.874Z,8.80
2019-03-17T23:07:51.726Z,9.60
2019-03-17T23:10:21.486Z,10.10
2019-03-17T23:12:51.582Z,9.60
2019-03-17T23:15:21.329Z,9.40
2019-03-17T23:17:51.146Z,9.70
2019-03-17T23:20:21.022Z,8.30
2019-03-17T23:22:51.155Z,8.30
2019-03-17T23:25:21.666Z,8.30
2019-03-17T23:27:52.522Z,7.90
2019-03-17T23:30:22.454Z,9.00
2019-03-17T23:32:54.201Z,8.30
2019-03-17T23:35:23.997Z,9.60
2019-03-17T23:37:54.002Z,10.10
2019-03-17T23:40:23.998Z,9.80
2019-03-17T23:42:53.901Z,9.50
2019-03-17T23:45:23.651Z,8.90
2019-03-17T23:47:53.498Z,8.60
2019-03-17T23:50:23.302Z,9.60
2019-03-17T23:52:52.927Z,10.00
2019-03-17T23:55:24.882Z,9.40
2019-03-17T23:57:55.010Z,10.00
